Time;durP1;ratioP1;P1;durP2;ratioP2;P2;SDS_P1;SDS_P2;PMS_P1;PMS_P2;Temp;Humidity;BMP_temperature;BMP_pressure;BME280_temperature;BME280_humidity;BME280_pressure;Samples;Min_cycle;Max_cycle;Signal;HPM_P1;HPM_P2
2022/09/19 00:01:36;;;;;;;0.20;0.20;;;;;;;19.84;45.23;101824.22;16132651;19;129282;-64
2022/09/19 00:06:59;;;;;;;0.45;0.20;;;;;;;19.83;45.58;101821.66;16134221;19;129647;-62
2022/09/19 00:12:22;;;;;;;0.65;0.17;;;;;;;19.81;45.48;101824.69;16132323;19;129393;-63
2022/09/19 00:17:43;;;;;;;0.90;0.30;;;;;;;19.80;45.28;101816.59;16130829;19;129292;-62
2022/09/19 00:28:46;;;;;;;0.13;0.10;;;;;;;19.76;45.08;101821.75;16133798;19;129547;-63
2022/09/19 00:34:09;;;;;;;0.20;0.10;;;;;;;19.75;45.01;101819.22;16132159;19;129524;-63
2022/09/19 00:39:30;;;;;;;0.25;0.10;;;;;;;19.73;45.29;101824.13;16130393;19;129847;-63
2022/09/19 00:44:59;;;;;;;0.43;0.13;;;;;;;19.73;45.26;101827.78;16129456;19;130036;-63
2022/09/19 00:50:27;;;;;;;0.50;0.20;;;;;;;19.69;45.06;101826.53;16129135;19;129031;-63
2022/09/19 00:55:55;;;;;;;0.10;0.10;;;;;;;19.71;45.28;101829.06;16130045;19;129623;-63
2022/09/19 01:01:16;;;;;;;0.20;0.10;;;;;;;19.66;45.42;101830.63;16128446;19;129727;-63
2022/09/19 01:06:55;;;;;;;0.35;0.20;;;;;;;19.66;45.11;101833.41;16128357;19;129239;-63
2022/09/19 01:12:46;;;;;;;0.28;0.20;;;;;;;19.64;45.46;101834.69;16128120;19;130587;-62
2022/09/19 01:18:09;;;;;;;0.68;0.15;;;;;;;19.63;45.00;101838.59;16130445;19;129344;-63
2022/09/19 01:23:35;;;;;;;0.20;0.10;;;;;;;19.62;45.07;101832.16;16125912;19;129235;-62
2022/09/19 01:29:16;;;;;;;0.20;0.10;;;;;;;19.62;45.15;101837.72;16126249;19;129529;-62
2022/09/19 01:34:50;;;;;;;0.60;0.20;;;;;;;19.61;45.17;101851.84;16126374;19;129514;-62
2022/09/19 01:40:13;;;;;;;0.28;0.13;;;;;;;19.58;45.04;101855.91;16124083;19;132252;-62
2022/09/19 01:45:40;;;;;;;0.85;0.20;;;;;;;19.57;44.99;101856.97;16126359;19;130370;-62
2022/09/19 01:51:28;;;;;;;0.20;0.20;;;;;;;19.56;45.33;101849.75;16124555;19;129781;-62
2022/09/19 01:56:53;;;;;;;0.40;0.10;;;;;;;19.56;45.03;101860.88;16123508;19;129711;-62
2022/09/19 02:02:28;;;;;;;0.60;0.10;;;;;;;19.55;45.13;101853.63;16124334;19;129498;-62
2022/09/19 02:08:02;;;;;;;0.10;0.10;;;;;;;19.55;45.25;101864.72;16122263;19;130173;-62
2022/09/19 02:13:27;;;;;;;0.63;0.17;;;;;;;19.52;45.14;101857.66;16122188;19;130454;-62
2022/09/19 02:18:53;;;;;;;2.22;0.25;;;;;;;19.53;45.22;101861.31;16122736;19;134574;-62
2022/09/19 02:24:21;;;;;;;0.17;0.15;;;;;;;19.51;45.22;101855.97;16119777;19;130450;-62
2022/09/19 02:29:48;;;;;;;2.15;0.47;;;;;;;19.51;45.33;101869.00;16121137;19;130299;-63
2022/09/19 02:35:13;;;;;;;0.90;0.30;;;;;;;19.49;45.15;101865.63;16119690;19;130234;-62
2022/09/19 02:40:43;;;;;;;0.40;0.10;;;;;;;19.50;44.95;101867.31;16120569;19;129765;-62
2022/09/19 02:46:14;;;;;;;1.30;0.20;;;;;;;19.49;45.10;101869.25;16131880;19;131048;-62
2022/09/19 02:51:46;;;;;;;0.50;0.15;;;;;;;19.48;45.36;101853.69;16136082;19;129530;-61
2022/09/19 02:57:14;;;;;;;0.68;0.25;;;;;;;19.47;45.23;101851.13;16135775;19;129140;-62
2022/09/19 03:02:39;;;;;;;0.52;0.20;;;;;;;19.46;44.90;101864.16;16136552;19;130218;-62
2022/09/19 03:08:03;;;;;;;;;;;;;;;19.42;44.92;101868.47;16134564;19;129468;-62
2022/09/19 03:13:26;;;;;;;0.43;0.10;;;;;;;19.44;45.23;101869.09;16136713;19;130695;-62
2022/09/19 03:18:55;;;;;;;0.40;0.17;;;;;;;19.45;44.90;101864.38;16136302;19;129717;-68
2022/09/19 03:24:17;;;;;;;1.35;0.10;;;;;;;19.42;44.98;101864.84;16136116;19;129686;-69
2022/09/19 03:29:38;;;;;;;0.47;0.10;;;;;;;19.42;45.39;101870.41;16134193;19;129677;-63
2022/09/19 03:35:02;;;;;;;0.32;0.20;;;;;;;19.41;45.09;101863.16;16131688;19;129825;-63
2022/09/19 03:40:25;;;;;;;0.45;0.10;;;;;;;19.40;45.16;101867.00;16132923;19;129543;-63
2022/09/19 03:45:49;;;;;;;;;;;;;;;19.35;45.18;101862.97;16134722;19;129846;-63
2022/09/19 03:51:13;;;;;;;0.75;0.20;;;;;;;19.38;45.18;101865.28;16132766;19;129226;-63
2022/09/19 03:56:34;;;;;;;0.35;0.20;;;;;;;19.36;45.15;101873.00;16132532;19;129891;-63
2022/09/19 04:01:58;;;;;;;0.00;0.00;;;;;;;19.36;45.17;101878.53;16130792;19;129516;-63
2022/09/19 04:07:19;;;;;;;0.45;0.20;;;;;;;19.36;45.16;101877.72;16131746;19;131113;-62
2022/09/19 04:12:41;;;;;;;0.47;0.20;;;;;;;19.35;45.35;101876.84;16132112;19;129180;-62
2022/09/19 04:18:03;;;;;;;0.50;0.20;;;;;;;19.34;44.85;101872.38;16130141;19;129656;-63
2022/09/19 04:23:26;;;;;;;0.80;0.10;;;;;;;19.34;45.32;101883.47;16129710;19;130720;-63
2022/09/19 04:28:47;;;;;;;0.22;0.10;;;;;;;19.33;45.27;101884.53;16132081;19;129138;-63
2022/09/19 04:34:16;;;;;;;0.43;0.10;;;;;;;19.33;45.11;101890.09;16128264;19;130681;-63
2022/09/19 04:39:38;;;;;;;0.08;0.08;;;;;;;19.32;45.16;101893.09;16129920;19;129483;-63
2022/09/19 04:45:00;;;;;;;0.50;0.13;;;;;;;19.31;44.92;101891.41;16129091;19;129402;-63
2022/09/19 04:50:21;;;;;;;0.30;0.10;;;;;;;19.30;45.37;101893.34;16127400;19;129166;-63
2022/09/19 04:55:43;;;;;;;0.57;0.13;;;;;;;19.29;45.09;101899.97;16129006;19;129412;-63
2022/09/19 05:01:05;;;;;;;1.30;0.10;;;;;;;19.29;45.23;101899.97;16125174;19;129394;-64
2022/09/19 05:06:28;;;;;;;0.43;0.17;;;;;;;19.28;44.84;101898.25;16127779;19;129458;-63
2022/09/19 05:11:50;;;;;;;0.30;0.17;;;;;;;19.28;45.27;101898.25;16124325;19;130747;-63
2022/09/19 05:17:12;;;;;;;0.20;0.10;;;;;;;19.25;44.82;101909.81;16128017;19;129693;-64
2022/09/19 05:22:33;;;;;;;0.30;0.13;;;;;;;19.26;45.27;101922.59;16125490;19;129651;-64
2022/09/19 05:28:06;;;;;;;0.25;0.20;;;;;;;19.27;45.17;101918.75;16116539;19;129884;-64
2022/09/19 05:33:27;;;;;;;1.05;0.10;;;;;;;19.25;44.89;101923.69;16127913;19;130100;-64
2022/09/19 05:38:49;;;;;;;4.00;0.20;;;;;;;19.25;44.95;101925.63;16127183;19;130485;-64
2022/09/19 05:44:13;;;;;;;1.52;0.20;;;;;;;19.24;44.85;101933.06;16125736;19;130296;-63
2022/09/19 05:49:34;;;;;;;9.43;0.50;;;;;;;19.25;45.26;101932.00;16122416;19;129488;-64
2022/09/19 05:54:56;;;;;;;2.78;0.20;;;;;;;19.27;45.21;101935.41;16124122;19;129710;-64
2022/09/19 06:00:19;;;;;;;1.50;0.30;;;;;;;19.30;44.93;101940.50;16122111;19;130625;-64
2022/09/19 06:05:43;;;;;;;6.15;0.30;;;;;;;19.30;45.12;101945.19;16124529;19;130086;-64
2022/09/19 06:11:06;;;;;;;2.45;0.20;;;;;;;19.29;45.04;101938.81;16121060;19;129487;-64
2022/09/19 06:16:28;;;;;;;1.33;0.20;;;;;;;19.32;44.86;101945.81;16123706;19;129777;-65
2022/09/19 06:21:51;;;;;;;3.30;0.20;;;;;;;19.35;44.69;101951.75;16121982;19;129523;-65
2022/09/19 06:27:12;;;;;;;5.15;0.20;;;;;;;19.42;44.69;101956.41;16120643;19;129279;-64
2022/09/19 06:32:37;;;;;;;6.07;0.30;;;;;;;19.45;44.34;101973.47;16123765;19;131016;-60
2022/09/19 06:38:03;;;;;;;1.23;0.30;;;;;;;19.46;44.67;101972.38;16124280;19;129840;-61
2022/09/19 06:43:26;;;;;;;1.20;0.30;;;;;;;19.49;44.60;101976.63;16127954;19;129264;-60
2022/09/19 06:48:50;;;;;;;5.38;0.30;;;;;;;19.50;44.43;101986.66;16124092;19;130214;-60
2022/09/19 06:54:12;;;;;;;1.00;0.30;;;;;;;19.51;44.74;101991.13;16121815;19;129375;-61
2022/09/19 06:59:34;;;;;;;2.63;0.30;;;;;;;19.53;44.43;101994.53;16124942;19;134642;-61
2022/09/19 07:04:55;;;;;;;3.28;0.30;;;;;;;19.55;44.63;102003.50;16120403;19;131058;-58
2022/09/19 07:10:19;;;;;;;1.40;0.30;;;;;;;19.56;44.36;101999.66;16122261;19;130170;-59
2022/09/19 07:15:41;;;;;;;0.47;0.10;;;;;;;19.65;44.55;102000.19;16119924;19;129292;-53
2022/09/19 07:21:03;;;;;;;1.35;0.40;;;;;;;19.74;44.18;102003.53;16123512;19;129707;-60
2022/09/19 07:26:25;;;;;;;4.88;0.40;;;;;;;19.80;44.46;102011.78;16120869;19;129906;-60
2022/09/19 07:31:47;;;;;;;2.85;0.40;;;;;;;19.85;44.01;102019.44;16120807;19;129289;-60
2022/09/19 07:37:08;;;;;;;1.13;0.22;;;;;;;19.89;44.23;102022.59;16129593;19;129783;-59
2022/09/19 07:42:30;;;;;;;0.88;0.32;;;;;;;19.94;44.40;102026.41;16134532;19;130310;-61
2022/09/19 07:47:52;;;;;;;2.55;0.47;;;;;;;19.91;43.97;102028.78;16135268;19;129997;-64
2022/09/19 07:53:19;;;;;;;2.75;0.60;;;;;;;19.90;44.47;102043.75;16136969;19;129990;-64
2022/09/19 07:58:41;;;;;;;2.53;0.40;;;;;;;19.86;44.49;102043.34;16137826;19;129259;-62
2022/09/19 08:04:02;;;;;;;2.50;0.47;;;;;;;19.83;44.50;102050.22;16133943;19;129844;-62
2022/09/19 08:09:24;;;;;;;5.05;0.65;;;;;;;19.82;44.24;102056.84;16132905;19;130462;-62
2022/09/19 08:14:46;;;;;;;1.10;0.47;;;;;;;19.81;44.35;102062.66;16129844;19;131157;-62
2022/09/19 08:20:08;;;;;;;2.20;0.57;;;;;;;19.80;44.47;102066.50;16130132;19;130078;-62
2022/09/19 08:25:32;;;;;;;1.13;0.30;;;;;;;19.81;44.28;102076.53;16133211;19;129216;-62
2022/09/19 08:30:59;;;;;;;2.40;0.40;;;;;;;19.82;44.05;102076.28;16131010;19;133458;-62
2022/09/19 08:36:22;;;;;;;1.48;0.50;;;;;;;19.82;44.26;102086.53;16128828;19;129532;-63
2022/09/19 08:42:08;;;;;;;0.93;0.40;;;;;;;19.84;44.26;102081.59;16129821;19;129528;-62
2022/09/19 08:47:33;;;;;;;2.38;0.38;;;;;;;19.82;43.96;102089.31;16128247;19;130300;-63
2022/09/19 08:52:58;;;;;;;;;;;;;;;19.78;44.30;102096.41;16128283;19;129612;-63
2022/09/19 08:58:24;;;;;;;2.67;0.30;;;;;;;19.80;43.98;102094.25;16123902;19;130742;-63
2022/09/19 09:04:07;;;;;;;1.08;0.40;;;;;;;19.80;43.93;102094.25;16123943;19;129400;-63
2022/09/19 09:09:31;;;;;;;3.00;0.63;;;;;;;19.77;44.19;102100.25;16124249;19;132152;-66
2022/09/19 09:15:09;;;;;;;19.42;0.88;;;;;;;19.79;44.49;102100.91;16114445;19;129889;-66
2022/09/19 09:21:06;;;;;;;5.65;1.02;;;;;;;19.77;44.29;102100.25;16125224;19;130190;-67
2022/09/19 09:26:36;;;;;;;7.05;1.20;;;;;;;19.77;44.35;102094.72;16118421;19;129561;-65
2022/09/19 09:32:23;;;;;;;10.93;0.80;;;;;;;19.79;44.39;102093.41;16124257;19;129597;-65
2022/09/19 09:38:02;;;;;;;7.35;1.00;;;;;;;19.76;44.20;102096.63;16124404;19;129073;-66
2022/09/19 09:43:29;;;;;;;5.28;1.30;;;;;;;19.76;44.30;102095.78;16123158;19;129327;-64
2022/09/19 09:48:52;;;;;;;8.65;0.90;;;;;;;19.78;44.14;102101.97;16125621;19;129784;-66
2022/09/19 10:06:25;;;;;;;5.88;0.90;;;;;;;19.80;43.88;102094.25;16126588;19;130783;-65
2022/09/19 10:12:07;;;;;;;12.90;1.10;;;;;;;19.78;44.07;102090.84;16126152;19;130556;-66
2022/09/19 10:17:57;;;;;;;6.63;1.10;;;;;;;19.77;44.07;102095.53;16124883;19;133414;-65
2022/09/19 10:23:25;;;;;;;3.22;0.77;;;;;;;19.75;44.04;102099.63;16122800;19;129688;-68
2022/09/19 10:28:53;;;;;;;3.90;0.85;;;;;;;19.74;44.23;102097.94;16123132;19;129483;-66
2022/09/19 10:34:34;;;;;;;4.85;0.90;;;;;;;19.74;44.24;102107.13;16124049;19;129850;-69
2022/09/19 10:40:04;;;;;;;3.55;0.75;;;;;;;19.69;43.92;102102.22;16120142;19;129194;-65
2022/09/19 10:45:36;;;;;;;5.13;0.75;;;;;;;19.67;44.27;102096.06;16123703;19;129518;-63
2022/09/19 10:50:59;;;;;;;3.60;1.08;;;;;;;19.67;43.80;102095.19;16121650;19;129643;-64
2022/09/19 10:56:23;;;;;;;2.88;0.90;;;;;;;19.67;43.73;102100.75;16119309;19;129399;-69
2022/09/19 11:02:24;;;;;;;4.65;0.85;;;;;;;19.68;44.14;102091.34;16121222;19;129210;-65
2022/09/19 11:07:50;;;;;;;2.55;0.73;;;;;;;19.66;43.67;102088.81;16128346;19;129918;-67
2022/09/19 11:13:19;;;;;;;2.05;0.82;;;;;;;19.67;43.67;102079.41;16135640;19;129561;-68
2022/09/19 11:19:26;;;;;;;3.95;0.75;;;;;;;19.69;43.83;102081.94;16133718;19;129623;-73
2022/09/19 11:25:04;;;;;;;3.95;0.85;;;;;;;19.69;43.70;102076.41;16137080;19;129970;-66
2022/09/19 11:30:27;;;;;;;3.30;0.70;;;;;;;19.69;43.48;102085.56;16138868;19;129451;-66
2022/09/19 11:36:03;;;;;;;2.30;0.60;;;;;;;19.75;43.42;102080.19;16136792;19;129629;-63
2022/09/19 11:41:37;;;;;;;2.63;0.60;;;;;;;19.77;43.46;102073.34;16135637;19;129517;-60
2022/09/19 11:47:22;;;;;;;6.18;0.70;;;;;;;19.80;43.00;102067.34;16136723;19;129644;-65
2022/09/19 11:53:12;;;;;;;3.38;0.60;;;;;;;19.82;43.04;102067.97;16134527;19;129195;-66
2022/09/19 11:58:44;;;;;;;1.90;0.47;;;;;;;19.82;42.98;102058.75;16135996;19;135165;-65
2022/09/19 12:04:24;;;;;;;3.05;0.63;;;;;;;19.83;43.02;102060.47;16136540;19;129559;-68
2022/09/19 12:09:52;;;;;;;4.10;0.70;;;;;;;19.83;42.67;102064.13;16134777;19;129440;-64
2022/09/19 12:15:17;;;;;;;2.60;0.60;;;;;;;19.84;42.36;102064.94;16132267;19;129623;-61
2022/09/19 12:20:42;;;;;;;5.63;0.73;;;;;;;19.88;42.02;102057.88;16128218;19;130158;-63
2022/09/19 12:26:09;;;;;;;3.35;0.40;;;;;;;19.94;42.14;102067.22;16132635;19;129431;-63
2022/09/19 12:31:36;;;;;;;6.60;0.57;;;;;;;19.96;41.88;102065.91;16130419;19;129460;-66
2022/09/19 12:37:09;;;;;;;5.85;0.70;;;;;;;20.06;42.14;102070.16;16129290;19;129371;-62
2022/09/19 12:42:54;;;;;;;2.72;0.70;;;;;;;20.29;41.53;102059.22;16129170;19;130033;-61
2022/09/19 12:48:24;;;;;;;5.80;0.68;;;;;;;20.55;41.04;102065.56;16129667;19;129943;-62
2022/09/19 12:53:55;;;;;;;2.05;0.65;;;;;;;20.81;40.70;102068.28;16128357;19;129707;-62
2022/09/19 12:59:23;;;;;;;2.25;0.43;;;;;;;20.97;40.75;102064.00;16128331;19;129212;-60
2022/09/19 13:04:57;;;;;;;3.80;0.63;;;;;;;21.10;40.48;102060.19;16131595;19;129360;-61
2022/09/19 13:10:39;;;;;;;2.50;0.60;;;;;;;21.14;40.26;102061.41;16130515;19;130067;-61
2022/09/19 13:16:07;;;;;;;2.28;0.52;;;;;;;21.09;40.30;102076.03;16128400;19;130505;-68
2022/09/19 13:27:26;;;;;;;2.15;0.80;;;;;;;20.93;39.92;102073.88;16125975;19;129441;-62
2022/09/19 13:32:54;;;;;;;5.00;0.60;;;;;;;20.83;39.24;102080.84;16129306;19;129356;-59
2022/09/19 13:38:25;;;;;;;1.92;0.70;;;;;;;20.74;39.12;102071.09;16126117;19;130204;-62
2022/09/19 13:44:00;;;;;;;2.92;0.80;;;;;;;20.67;39.61;102079.53;16127134;19;129576;-61
2022/09/19 13:49:31;;;;;;;2.22;0.70;;;;;;;20.62;39.60;102073.81;16122183;19;130224;-60
2022/09/19 13:55:18;;;;;;;2.63;0.68;;;;;;;20.57;39.63;102077.28;16123739;19;129806;-60
2022/09/19 14:00:44;;;;;;;1.92;0.45;;;;;;;20.51;39.48;102083.78;16123376;19;129571;-63
2022/09/19 14:06:31;;;;;;;5.95;0.90;;;;;;;20.48;39.34;102077.84;16121781;19;129943;-63
2022/09/19 14:12:35;;;;;;;1.90;0.65;;;;;;;20.44;39.65;102075.50;16121840;19;131026;-64
2022/09/19 14:18:12;;;;;;;2.13;0.50;;;;;;;20.40;39.41;102070.66;16122437;19;130451;-61
2022/09/19 14:23:41;;;;;;;2.30;0.50;;;;;;;20.44;39.91;102074.66;16125182;19;130696;-63
2022/09/19 14:29:23;;;;;;;2.60;0.50;;;;;;;20.54;39.57;102065.78;16112279;19;130231;-59
2022/09/19 14:34:47;;;;;;;3.40;0.50;;;;;;;20.64;39.78;102065.25;16124580;19;129135;-66
2022/09/19 14:40:36;;;;;;;1.75;0.60;;;;;;;20.74;39.86;102060.81;16124044;19;129467;-62
2022/09/19 14:46:20;;;;;;;2.45;0.70;;;;;;;20.79;39.32;102051.84;16137062;19;130249;-59
2022/09/19 14:52:00;;;;;;;2.75;0.60;;;;;;;20.87;38.94;102057.06;16137065;19;129177;-66
2022/09/19 14:57:22;;;;;;;1.65;0.40;;;;;;;20.93;39.52;102062.75;16135769;19;129678;-61
2022/09/19 15:02:44;;;;;;;2.35;0.60;;;;;;;20.98;39.14;102066.56;16134342;19;130588;-58
2022/09/19 15:08:28;;;;;;;2.97;0.65;;;;;;;21.02;38.95;102058.59;16134873;19;129351;-58
2022/09/19 15:13:50;;;;;;;3.72;0.70;;;;;;;21.03;39.00;102069.47;16136803;19;130506;-63
2022/09/19 15:19:12;;;;;;;3.10;0.63;;;;;;;21.07;38.96;102067.06;16135768;19;129365;-63
2022/09/19 15:24:34;;;;;;;2.30;0.50;;;;;;;21.12;39.12;102067.22;16138440;19;129307;-65
2022/09/19 15:29:57;;;;;;;2.25;0.40;;;;;;;21.12;39.44;102072.78;16138657;19;129648;-65
2022/09/19 15:35:20;;;;;;;2.22;0.57;;;;;;;21.14;39.61;102087.31;16137091;19;129931;-64
2022/09/19 15:40:43;;;;;;;2.63;0.38;;;;;;;21.15;39.51;102083.44;16135255;19;130633;-68
2022/09/19 15:46:30;;;;;;;2.85;0.80;;;;;;;21.19;39.44;102081.03;16133798;19;129961;-66
2022/09/19 15:52:00;;;;;;;2.38;0.70;;;;;;;21.19;39.42;102098.56;16134307;19;129253;-66
2022/09/19 15:57:32;;;;;;;7.93;1.65;;;;;;;21.18;39.80;102088.53;16132416;19;129592;-67
2022/09/19 16:02:59;;;;;;;10.30;3.38;;;;;;;21.13;39.95;102091.19;16138217;19;129647;-66
2022/09/19 16:14:18;;;;;;;17.38;6.13;;;;;;;21.00;40.38;102103.31;16130785;19;132398;-65
2022/09/19 16:19:43;;;;;;;17.58;4.95;;;;;;;20.90;40.12;102103.88;16131687;19;129296;-64
2022/09/19 16:25:05;;;;;;;11.07;4.43;;;;;;;20.84;40.09;102110.38;16131069;19;129440;-65
2022/09/19 16:30:27;;;;;;;15.50;3.75;;;;;;;20.76;40.27;102116.25;16133085;19;129692;-65
2022/09/19 16:35:56;;;;;;;15.65;4.07;;;;;;;20.70;40.06;102114.34;16129721;19;129456;-65
2022/09/19 16:41:22;;;;;;;10.10;2.92;;;;;;;20.64;39.85;102120.84;16130076;19;129145;-66
2022/09/19 16:46:57;;;;;;;15.23;3.17;;;;;;;20.59;40.03;102119.59;16129002;19;130110;-66
2022/09/19 16:52:24;;;;;;;11.10;2.80;;;;;;;20.64;40.52;102118.06;16125532;19;129729;-64
2022/09/19 16:57:46;;;;;;;8.38;2.92;;;;;;;20.81;40.16;102135.84;16130755;19;129051;-64
2022/09/19 17:03:10;;;;;;;26.60;2.72;;;;;;;20.98;40.11;102129.69;16125297;19;129648;-65
2022/09/19 17:08:32;;;;;;;8.60;2.20;;;;;;;21.13;39.88;102144.03;16126078;19;129244;-64
2022/09/19 17:13:53;;;;;;;10.43;1.85;;;;;;;21.25;39.84;102137.69;16126116;19;129950;-65
2022/09/19 17:19:15;;;;;;;9.18;1.63;;;;;;;21.32;39.32;102149.56;16125675;19;129233;-65
2022/09/19 17:24:39;;;;;;;10.15;2.22;;;;;;;21.36;39.25;102151.63;16125633;19;129607;-65
2022/09/19 17:30:00;;;;;;;6.32;1.27;;;;;;;21.39;39.68;102161.47;16125617;19;129912;-65
2022/09/19 17:35:22;;;;;;;5.50;1.20;;;;;;;21.38;39.24;102165.34;16122369;19;130741;-64
2022/09/19 17:40:47;;;;;;;10.15;1.42;;;;;;;21.40;39.09;102165.97;16124312;19;130212;-65
2022/09/19 17:46:10;;;;;;;7.90;1.55;;;;;;;21.40;39.38;102167.88;16123241;19;134592;-65
2022/09/19 17:51:34;;;;;;;14.13;1.63;;;;;;;21.41;39.26;102181.59;16122869;19;132904;-66
2022/09/19 17:56:55;;;;;;;12.95;1.55;;;;;;;21.38;39.50;102170.91;16124938;19;131045;-66
2022/09/19 18:08:02;;;;;;;10.63;1.25;;;;;;;21.39;39.43;102177.31;16123957;19;129415;-64
2022/09/19 18:13:24;;;;;;;9.75;1.23;;;;;;;21.40;39.40;102168.75;16123075;19;129969;-63
2022/09/19 18:18:46;;;;;;;9.77;0.90;;;;;;;21.40;39.64;102179.88;16121090;19;130040;-65
2022/09/19 18:24:09;;;;;;;12.15;1.40;;;;;;;21.41;39.82;102180.72;16123638;19;129719;-66
2022/09/19 18:29:32;;;;;;;4.05;0.70;;;;;;;21.43;40.11;102193.31;16123390;19;130184;-66
2022/09/19 18:34:53;;;;;;;5.30;0.98;;;;;;;21.43;39.76;102201.66;16123200;19;129852;-66
2022/09/19 18:40:16;;;;;;;4.60;0.65;;;;;;;21.50;40.20;102191.34;16119503;19;130225;-65
2022/09/19 18:45:39;;;;;;;7.00;0.93;;;;;;;21.61;39.82;102198.03;16120433;19;129919;-65
2022/09/19 18:51:10;;;;;;;3.40;0.60;;;;;;;21.79;40.21;102194.34;16126719;19;130855;-68
2022/09/19 18:56:32;;;;;;;4.00;0.68;;;;;;;22.00;39.87;102194.03;16124979;19;129136;-68
2022/09/19 19:01:55;;;;;;;3.03;0.85;;;;;;;22.19;39.85;102192.00;16125168;19;131467;-67
2022/09/19 19:07:17;;;;;;;9.88;0.75;;;;;;;22.35;39.48;102196.91;16121818;19;131180;-65
2022/09/19 19:12:39;;;;;;;3.35;0.93;;;;;;;22.53;39.67;102209.91;16123971;19;129402;-63
2022/09/19 19:18:09;;;;;;;3.75;0.60;;;;;;;22.69;39.23;102211.09;16122698;19;130044;-62
2022/09/19 19:23:32;;;;;;;5.65;0.70;;;;;;;22.81;39.57;102215.81;16122353;19;129298;-65
2022/09/19 19:28:54;;;;;;;13.32;0.73;;;;;;;22.89;39.58;102213.53;16127674;19;130314;-65
2022/09/19 19:34:16;;;;;;;11.13;0.80;;;;;;;22.93;39.52;102213.06;16132609;19;130365;-65
2022/09/19 19:39:38;;;;;;;7.70;0.70;;;;;;;22.95;39.61;102220.09;16134590;19;129309;-65
2022/09/19 19:45:02;;;;;;;10.07;1.10;;;;;;;22.97;39.87;102228.22;16134972;19;129487;-64
2022/09/19 19:50:23;;;;;;;9.38;0.57;;;;;;;22.88;39.98;102214.63;16132709;19;129615;-64
2022/09/19 19:55:45;;;;;;;6.88;0.73;;;;;;;22.77;40.28;102218.25;16132035;19;129582;-65
2022/09/19 20:01:16;;;;;;;12.13;1.42;;;;;;;22.62;40.16;102215.97;16132222;19;130338;-64
2022/09/19 20:06:43;;;;;;;10.68;0.95;;;;;;;22.48;40.26;102211.72;16135008;19;129460;-64
2022/09/19 20:12:05;;;;;;;16.38;1.00;;;;;;;22.33;40.73;102199.09;16131562;19;128981;-68
2022/09/19 20:17:27;;;;;;;11.57;0.93;;;;;;;22.23;41.12;102188.53;16139102;19;129425;-66
2022/09/19 20:22:49;;;;;;;3.08;0.68;;;;;;;22.15;40.98;102196.38;16134353;19;134236;-68
2022/09/19 20:28:11;;;;;;;9.48;1.10;;;;;;;22.05;41.41;102202.53;16133768;19;129303;-67
2022/09/19 20:33:33;;;;;;;4.90;0.70;;;;;;;21.94;41.30;102212.56;16133806;19;129554;-65
2022/09/19 20:38:56;;;;;;;11.57;0.70;;;;;;;21.85;41.27;102211.19;16129254;19;129582;-68
2022/09/19 20:44:20;;;;;;;3.75;0.70;;;;;;;21.78;41.43;102209.38;16131800;19;129202;-68
2022/09/19 20:49:42;;;;;;;4.20;0.70;;;;;;;21.68;41.79;102225.78;16129040;19;130817;-68
2022/09/19 20:55:04;;;;;;;9.02;0.90;;;;;;;21.59;41.94;102221.63;16128527;19;129296;-67
2022/09/19 21:00:26;;;;;;;4.55;0.70;;;;;;;21.50;41.86;102224.75;16129259;19;129846;-67
2022/09/19 21:05:52;;;;;;;3.15;0.52;;;;;;;21.42;41.93;102232.53;16129534;19;130599;-68
2022/09/19 21:11:14;;;;;;;4.50;0.60;;;;;;;21.36;42.24;102239.88;16128072;19;129341;-68
2022/09/19 21:16:38;;;;;;;3.13;0.50;;;;;;;21.27;42.37;102244.06;16126284;19;130803;-68
2022/09/19 21:22:01;;;;;;;3.08;0.70;;;;;;;21.22;42.16;102239.19;16129859;19;130277;-67
2022/09/19 21:27:23;;;;;;;1.77;0.35;;;;;;;21.16;42.34;102229.84;16126837;19;130149;-68
2022/09/19 21:32:44;;;;;;;1.20;0.50;;;;;;;21.12;42.26;102242.53;16129674;19;129726;-68
2022/09/19 21:38:06;;;;;;;3.17;0.50;;;;;;;21.09;42.17;102242.97;16127691;19;129337;-68
2022/09/19 21:43:32;;;;;;;3.50;0.50;;;;;;;21.05;42.30;102239.81;16128984;19;129288;-68
2022/09/19 21:48:54;;;;;;;1.27;0.50;;;;;;;21.01;42.38;102249.69;16126927;19;130132;-68
2022/09/19 21:54:15;;;;;;;0.98;0.45;;;;;;;20.98;42.22;102244.59;16123197;19;129223;-67
2022/09/19 21:59:37;;;;;;;1.60;0.40;;;;;;;20.96;42.44;102243.13;16128290;19;129488;-68
2022/09/19 22:04:59;;;;;;;0.80;0.32;;;;;;;20.93;42.23;102232.44;16127419;19;130596;-67
2022/09/19 22:10:20;;;;;;;1.00;0.30;;;;;;;20.88;42.49;102228.44;16123270;19;130579;-68
2022/09/19 22:15:42;;;;;;;1.40;0.22;;;;;;;20.89;42.69;102230.16;16124151;19;129502;-67
2022/09/19 22:21:05;;;;;;;0.77;0.30;;;;;;;20.86;42.69;102229.75;16122415;19;129304;-68
2022/09/19 22:26:28;;;;;;;1.10;0.30;;;;;;;20.84;42.56;102235.53;16122084;19;129484;-68
2022/09/19 22:31:50;;;;;;;1.67;0.50;;;;;;;20.81;42.48;102222.06;16121685;19;129471;-68
2022/09/19 22:37:12;;;;;;;1.17;0.30;;;;;;;20.78;42.49;102228.13;16120989;19;129878;-68
2022/09/19 22:42:33;;;;;;;2.17;0.50;;;;;;;20.76;42.51;102230.28;16124516;19;129422;-68
2022/09/19 22:47:55;;;;;;;2.03;0.30;;;;;;;20.72;42.63;102240.97;16121311;19;129426;-68
2022/09/19 22:53:17;;;;;;;1.92;0.50;;;;;;;20.71;42.58;102249.53;16122675;19;129629;-68
2022/09/19 22:58:39;;;;;;;0.68;0.20;;;;;;;20.69;42.97;102247.00;16123105;19;130663;-68
2022/09/19 23:04:03;;;;;;;0.77;0.28;;;;;;;20.67;42.64;102238.03;16127414;19;129334;-68
2022/09/19 23:09:25;;;;;;;0.90;0.25;;;;;;;20.67;42.99;102232.47;16137079;19;129818;-67
2022/09/19 23:14:46;;;;;;;1.00;0.20;;;;;;;20.65;42.65;102229.06;16136944;19;129979;-68
2022/09/19 23:20:08;;;;;;;1.38;0.30;;;;;;;20.62;42.85;102225.88;16134926;19;129519;-68
2022/09/19 23:25:31;;;;;;;0.43;0.35;;;;;;;20.60;42.80;102232.53;16141510;19;129271;-68
2022/09/19 23:30:53;;;;;;;0.73;0.22;;;;;;;20.59;42.54;102233.59;16138876;19;129323;-68
2022/09/19 23:36:18;;;;;;;0.80;0.28;;;;;;;20.58;42.65;102234.69;16138415;19;129023;-69
2022/09/19 23:41:39;;;;;;;0.40;0.20;;;;;;;20.55;42.96;102239.84;16140866;19;129513;-68
2022/09/19 23:47:01;;;;;;;1.05;0.35;;;;;;;20.55;43.03;102228.72;16140601;19;129322;-69
2022/09/19 23:52:23;;;;;;;0.70;0.20;;;;;;;20.51;42.62;102233.91;16137059;19;129431;-68
2022/09/19 23:57:45;;;;;;;0.98;0.20;;;;;;;20.51;43.00;102245.03;16135875;19;129218;-72
